sensor_id;sensor_type;location;lat;lon;timestamp;P1;durP1;ratioP1;P2;durP2;ratioP2
17725;SDS011;8983;53.156;17.960;2023-03-01T00:01:23;97.77;;;36.67;;
17725;SDS011;8983;53.156;17.960;2023-03-01T00:03:53;103.40;;;37.80;;
17725;SDS011;8983;53.156;17.960;2023-03-01T00:06:22;94.57;;;38.23;;
17725;SDS011;8983;53.156;17.960;2023-03-01T00:08:50;88.07;;;33.13;;
17725;SDS011;8983;53.156;17.960;2023-03-01T00:11:20;81.10;;;33.20;;
17725;SDS011;8983;53.156;17.960;2023-03-01T00:13:50;87.93;;;32.83;;
17725;SDS011;8983;53.156;17.960;2023-03-01T00:16:20;99.70;;;34.50;;
17725;SDS011;8983;53.156;17.960;2023-03-01T00:18:51;78.23;;;31.83;;
17725;SDS011;8983;53.156;17.960;2023-03-01T00:21:21;77.47;;;33.57;;
17725;SDS011;8983;53.156;17.960;2023-03-01T00:23:50;86.13;;;33.67;;
17725;SDS011;8983;53.156;17.960;2023-03-01T00:26:19;121.63;;;42.40;;
17725;SDS011;8983;53.156;17.960;2023-03-01T00:28:49;105.10;;;41.87;;
17725;SDS011;8983;53.156;17.960;2023-03-01T00:31:18;109.97;;;41.30;;
17725;SDS011;8983;53.156;17.960;2023-03-01T00:33:50;118.83;;;42.97;;
17725;SDS011;8983;53.156;17.960;2023-03-01T00:36:19;124.57;;;40.27;;
17725;SDS011;8983;53.156;17.960;2023-03-01T00:38:48;118.03;;;38.43;;
17725;SDS011;8983;53.156;17.960;2023-03-01T00:41:17;98.77;;;37.10;;
17725;SDS011;8983;53.156;17.960;2023-03-01T00:43:46;88.97;;;34.07;;
17725;SDS011;8983;53.156;17.960;2023-03-01T00:46:14;75.43;;;31.93;;
17725;SDS011;8983;53.156;17.960;2023-03-01T00:48:44;73.87;;;29.10;;
17725;SDS011;8983;53.156;17.960;2023-03-01T00:51:14;70.57;;;29.93;;
17725;SDS011;8983;53.156;17.960;2023-03-01T00:53:43;64.47;;;26.53;;
17725;SDS011;8983;53.156;17.960;2023-03-01T00:56:13;70.70;;;28.60;;
17725;SDS011;8983;53.156;17.960;2023-03-01T00:58:42;68.47;;;27.63;;
17725;SDS011;8983;53.156;17.960;2023-03-01T01:01:10;69.13;;;27.27;;
17725;SDS011;8983;53.156;17.960;2023-03-01T01:03:48;72.17;;;28.63;;
17725;SDS011;8983;53.156;17.960;2023-03-01T01:06:20;66.97;;;25.90;;
17725;SDS011;8983;53.156;17.960;2023-03-01T01:08:50;60.87;;;24.73;;
17725;SDS011;8983;53.156;17.960;2023-03-01T01:11:19;68.23;;;26.20;;
17725;SDS011;8983;53.156;17.960;2023-03-01T01:13:49;66.50;;;27.90;;
17725;SDS011;8983;53.156;17.960;2023-03-01T01:16:18;68.80;;;27.13;;
17725;SDS011;8983;53.156;17.960;2023-03-01T01:18:48;60.83;;;27.23;;
17725;SDS011;8983;53.156;17.960;2023-03-01T01:21:17;73.40;;;26.57;;
17725;SDS011;8983;53.156;17.960;2023-03-01T01:23:49;69.63;;;25.77;;
17725;SDS011;8983;53.156;17.960;2023-03-01T01:26:18;73.90;;;26.47;;
17725;SDS011;8983;53.156;17.960;2023-03-01T01:28:47;74.57;;;28.00;;
17725;SDS011;8983;53.156;17.960;2023-03-01T01:31:16;58.43;;;25.33;;
17725;SDS011;8983;53.156;17.960;2023-03-01T01:33:45;62.30;;;24.60;;
17725;SDS011;8983;53.156;17.960;2023-03-01T01:36:13;60.37;;;22.70;;
17725;SDS011;8983;53.156;17.960;2023-03-01T01:38:43;60.70;;;25.87;;
17725;SDS011;8983;53.156;17.960;2023-03-01T01:41:11;56.67;;;24.40;;
17725;SDS011;8983;53.156;17.960;2023-03-01T01:43:41;42.00;;;20.33;;
17725;SDS011;8983;53.156;17.960;2023-03-01T01:46:14;64.83;;;24.27;;
17725;SDS011;8983;53.156;17.960;2023-03-01T01:48:49;64.27;;;25.53;;
17725;SDS011;8983;53.156;17.960;2023-03-01T01:51:22;64.90;;;25.70;;
17725;SDS011;8983;53.156;17.960;2023-03-01T01:53:54;60.77;;;25.97;;
17725;SDS011;8983;53.156;17.960;2023-03-01T01:56:27;66.97;;;25.67;;
17725;SDS011;8983;53.156;17.960;2023-03-01T01:58:57;66.90;;;25.97;;
17725;SDS011;8983;53.156;17.960;2023-03-01T02:01:26;59.23;;;24.40;;
17725;SDS011;8983;53.156;17.960;2023-03-01T02:03:54;65.50;;;26.00;;
17725;SDS011;8983;53.156;17.960;2023-03-01T02:06:25;56.90;;;24.17;;
17725;SDS011;8983;53.156;17.960;2023-03-01T02:08:59;58.43;;;25.60;;
17725;SDS011;8983;53.156;17.960;2023-03-01T02:11:30;53.73;;;23.77;;
17725;SDS011;8983;53.156;17.960;2023-03-01T02:14:00;49.93;;;22.07;;
17725;SDS011;8983;53.156;17.960;2023-03-01T02:16:28;47.60;;;23.53;;
17725;SDS011;8983;53.156;17.960;2023-03-01T02:18:58;58.97;;;24.33;;
17725;SDS011;8983;53.156;17.960;2023-03-01T02:21:30;49.27;;;23.20;;
17725;SDS011;8983;53.156;17.960;2023-03-01T02:24:08;67.30;;;24.87;;
17725;SDS011;8983;53.156;17.960;2023-03-01T02:26:48;59.37;;;25.33;;
17725;SDS011;8983;53.156;17.960;2023-03-01T02:29:21;68.67;;;26.97;;
17725;SDS011;8983;53.156;17.960;2023-03-01T02:31:49;63.30;;;27.60;;
17725;SDS011;8983;53.156;17.960;2023-03-01T02:34:21;70.27;;;28.33;;
17725;SDS011;8983;53.156;17.960;2023-03-01T02:36:53;58.00;;;25.67;;
17725;SDS011;8983;53.156;17.960;2023-03-01T02:39:25;58.17;;;24.10;;
17725;SDS011;8983;53.156;17.960;2023-03-01T02:41:55;59.60;;;24.87;;
17725;SDS011;8983;53.156;17.960;2023-03-01T02:44:26;55.13;;;23.80;;
17725;SDS011;8983;53.156;17.960;2023-03-01T02:46:55;67.93;;;26.40;;
17725;SDS011;8983;53.156;17.960;2023-03-01T02:49:26;60.80;;;25.73;;
17725;SDS011;8983;53.156;17.960;2023-03-01T02:54:57;54.60;;;23.70;;
17725;SDS011;8983;53.156;17.960;2023-03-01T02:57:28;49.17;;;20.80;;
17725;SDS011;8983;53.156;17.960;2023-03-01T03:00:01;57.03;;;24.20;;
17725;SDS011;8983;53.156;17.960;2023-03-01T03:02:33;58.17;;;23.87;;
17725;SDS011;8983;53.156;17.960;2023-03-01T03:05:06;47.77;;;24.30;;
17725;SDS011;8983;53.156;17.960;2023-03-01T03:07:37;57.93;;;22.03;;
17725;SDS011;8983;53.156;17.960;2023-03-01T03:10:07;49.00;;;22.07;;
17725;SDS011;8983;53.156;17.960;2023-03-01T03:12:39;50.63;;;20.67;;
17725;SDS011;8983;53.156;17.960;2023-03-01T03:15:10;43.63;;;22.03;;
17725;SDS011;8983;53.156;17.960;2023-03-01T03:17:39;47.77;;;22.67;;
17725;SDS011;8983;53.156;17.960;2023-03-01T03:20:12;48.83;;;21.23;;
17725;SDS011;8983;53.156;17.960;2023-03-01T03:22:45;51.97;;;22.70;;
17725;SDS011;8983;53.156;17.960;2023-03-01T03:25:15;45.60;;;21.83;;
17725;SDS011;8983;53.156;17.960;2023-03-01T03:27:44;53.10;;;22.17;;
17725;SDS011;8983;53.156;17.960;2023-03-01T03:30:16;47.97;;;21.00;;
17725;SDS011;8983;53.156;17.960;2023-03-01T03:32:47;50.80;;;22.43;;
17725;SDS011;8983;53.156;17.960;2023-03-01T03:35:19;48.00;;;20.80;;
17725;SDS011;8983;53.156;17.960;2023-03-01T03:37:49;51.40;;;23.50;;
17725;SDS011;8983;53.156;17.960;2023-03-01T03:40:29;58.60;;;21.70;;
17725;SDS011;8983;53.156;17.960;2023-03-01T03:43:00;52.93;;;22.57;;
17725;SDS011;8983;53.156;17.960;2023-03-01T03:45:30;45.33;;;21.27;;
17725;SDS011;8983;53.156;17.960;2023-03-01T03:47:59;47.63;;;22.37;;
17725;SDS011;8983;53.156;17.960;2023-03-01T03:50:28;50.77;;;21.30;;
17725;SDS011;8983;53.156;17.960;2023-03-01T03:52:57;49.47;;;21.97;;
17725;SDS011;8983;53.156;17.960;2023-03-01T03:55:25;46.07;;;21.37;;
17725;SDS011;8983;53.156;17.960;2023-03-01T03:57:57;58.73;;;23.90;;
17725;SDS011;8983;53.156;17.960;2023-03-01T04:00:29;49.03;;;23.27;;
17725;SDS011;8983;53.156;17.960;2023-03-01T04:02:58;50.73;;;22.47;;
17725;SDS011;8983;53.156;17.960;2023-03-01T04:05:27;46.43;;;21.30;;
17725;SDS011;8983;53.156;17.960;2023-03-01T04:07:55;47.73;;;22.27;;
17725;SDS011;8983;53.156;17.960;2023-03-01T04:10:34;49.90;;;21.33;;
17725;SDS011;8983;53.156;17.960;2023-03-01T04:13:04;49.97;;;19.60;;
17725;SDS011;8983;53.156;17.960;2023-03-01T04:15:35;57.70;;;22.43;;
17725;SDS011;8983;53.156;17.960;2023-03-01T04:18:03;57.37;;;24.83;;
17725;SDS011;8983;53.156;17.960;2023-03-01T04:20:33;50.23;;;23.63;;
17725;SDS011;8983;53.156;17.960;2023-03-01T04:23:05;54.40;;;22.93;;
17725;SDS011;8983;53.156;17.960;2023-03-01T04:25:40;64.03;;;24.87;;
17725;SDS011;8983;53.156;17.960;2023-03-01T04:28:10;82.93;;;28.50;;
17725;SDS011;8983;53.156;17.960;2023-03-01T04:30:39;64.67;;;26.47;;
17725;SDS011;8983;53.156;17.960;2023-03-01T04:33:08;73.97;;;30.93;;
17725;SDS011;8983;53.156;17.960;2023-03-01T04:35:38;68.43;;;27.90;;
17725;SDS011;8983;53.156;17.960;2023-03-01T04:38:07;57.73;;;23.63;;
17725;SDS011;8983;53.156;17.960;2023-03-01T04:40:35;66.03;;;27.10;;
17725;SDS011;8983;53.156;17.960;2023-03-01T04:43:04;72.80;;;30.40;;
17725;SDS011;8983;53.156;17.960;2023-03-01T04:45:32;66.13;;;28.30;;
17725;SDS011;8983;53.156;17.960;2023-03-01T04:48:03;57.10;;;24.67;;
17725;SDS011;8983;53.156;17.960;2023-03-01T04:50:32;63.17;;;24.23;;
17725;SDS011;8983;53.156;17.960;2023-03-01T04:53:00;70.23;;;27.83;;
17725;SDS011;8983;53.156;17.960;2023-03-01T04:55:28;64.77;;;25.10;;
17725;SDS011;8983;53.156;17.960;2023-03-01T04:57:57;64.73;;;26.10;;
17725;SDS011;8983;53.156;17.960;2023-03-01T05:00:26;63.73;;;26.17;;
17725;SDS011;8983;53.156;17.960;2023-03-01T05:02:54;58.80;;;23.87;;
17725;SDS011;8983;53.156;17.960;2023-03-01T05:05:26;59.77;;;23.63;;
17725;SDS011;8983;53.156;17.960;2023-03-01T05:07:58;65.37;;;24.50;;
17725;SDS011;8983;53.156;17.960;2023-03-01T05:10:28;62.07;;;22.73;;
17725;SDS011;8983;53.156;17.960;2023-03-01T05:12:57;56.33;;;21.43;;
17725;SDS011;8983;53.156;17.960;2023-03-01T05:15:27;56.37;;;24.43;;
17725;SDS011;8983;53.156;17.960;2023-03-01T05:17:58;61.50;;;23.60;;
17725;SDS011;8983;53.156;17.960;2023-03-01T05:20:29;43.63;;;19.23;;
17725;SDS011;8983;53.156;17.960;2023-03-01T05:22:58;45.87;;;20.00;;
17725;SDS011;8983;53.156;17.960;2023-03-01T05:25:32;44.87;;;19.03;;
17725;SDS011;8983;53.156;17.960;2023-03-01T05:28:01;44.43;;;20.13;;
17725;SDS011;8983;53.156;17.960;2023-03-01T05:30:31;37.10;;;17.43;;
17725;SDS011;8983;53.156;17.960;2023-03-01T05:33:00;44.37;;;20.53;;
17725;SDS011;8983;53.156;17.960;2023-03-01T05:35:32;44.30;;;18.97;;
17725;SDS011;8983;53.156;17.960;2023-03-01T05:38:00;41.27;;;19.87;;
17725;SDS011;8983;53.156;17.960;2023-03-01T05:40:28;42.70;;;18.80;;
17725;SDS011;8983;53.156;17.960;2023-03-01T05:42:56;32.47;;;17.30;;
17725;SDS011;8983;53.156;17.960;2023-03-01T05:45:25;40.43;;;18.77;;
17725;SDS011;8983;53.156;17.960;2023-03-01T05:47:54;38.77;;;17.43;;
17725;SDS011;8983;53.156;17.960;2023-03-01T05:50:23;33.80;;;17.23;;
17725;SDS011;8983;53.156;17.960;2023-03-01T05:52:58;35.30;;;16.57;;
17725;SDS011;8983;53.156;17.960;2023-03-01T05:55:28;32.07;;;16.00;;
17725;SDS011;8983;53.156;17.960;2023-03-01T05:57:57;32.57;;;15.83;;
17725;SDS011;8983;53.156;17.960;2023-03-01T06:00:26;36.23;;;18.43;;
17725;SDS011;8983;53.156;17.960;2023-03-01T06:02:55;32.57;;;17.00;;
17725;SDS011;8983;53.156;17.960;2023-03-01T06:05:24;34.00;;;17.77;;
17725;SDS011;8983;53.156;17.960;2023-03-01T06:07:53;32.73;;;15.83;;
17725;SDS011;8983;53.156;17.960;2023-03-01T06:10:23;34.07;;;17.20;;
17725;SDS011;8983;53.156;17.960;2023-03-01T06:12:51;35.87;;;16.60;;
17725;SDS011;8983;53.156;17.960;2023-03-01T06:15:20;26.23;;;14.53;;
17725;SDS011;8983;53.156;17.960;2023-03-01T06:17:49;28.13;;;12.83;;
17725;SDS011;8983;53.156;17.960;2023-03-01T06:20:18;28.13;;;13.90;;
17725;SDS011;8983;53.156;17.960;2023-03-01T06:22:48;25.37;;;13.33;;
17725;SDS011;8983;53.156;17.960;2023-03-01T06:25:18;25.10;;;12.43;;
17725;SDS011;8983;53.156;17.960;2023-03-01T06:27:49;27.93;;;13.70;;
17725;SDS011;8983;53.156;17.960;2023-03-01T06:30:19;23.13;;;12.83;;
17725;SDS011;8983;53.156;17.960;2023-03-01T06:32:48;26.23;;;13.30;;
17725;SDS011;8983;53.156;17.960;2023-03-01T06:35:16;30.40;;;13.97;;
17725;SDS011;8983;53.156;17.960;2023-03-01T06:37:46;26.50;;;13.10;;
17725;SDS011;8983;53.156;17.960;2023-03-01T06:40:15;28.67;;;13.33;;
17725;SDS011;8983;53.156;17.960;2023-03-01T06:42:47;33.43;;;15.93;;
17725;SDS011;8983;53.156;17.960;2023-03-01T06:45:18;31.70;;;14.83;;
17725;SDS011;8983;53.156;17.960;2023-03-01T06:47:47;28.63;;;13.63;;
17725;SDS011;8983;53.156;17.960;2023-03-01T06:50:16;25.43;;;13.80;;
17725;SDS011;8983;53.156;17.960;2023-03-01T06:52:45;27.87;;;13.87;;
17725;SDS011;8983;53.156;17.960;2023-03-01T06:55:13;28.17;;;13.70;;
17725;SDS011;8983;53.156;17.960;2023-03-01T06:57:41;27.87;;;15.10;;
17725;SDS011;8983;53.156;17.960;2023-03-01T07:00:12;29.20;;;12.87;;
17725;SDS011;8983;53.156;17.960;2023-03-01T07:02:41;27.67;;;12.63;;
17725;SDS011;8983;53.156;17.960;2023-03-01T07:05:10;25.90;;;13.80;;
17725;SDS011;8983;53.156;17.960;2023-03-01T07:07:38;24.80;;;13.00;;
17725;SDS011;8983;53.156;17.960;2023-03-01T07:10:06;21.50;;;12.77;;
17725;SDS011;8983;53.156;17.960;2023-03-01T07:12:36;23.80;;;12.17;;
17725;SDS011;8983;53.156;17.960;2023-03-01T07:15:04;20.13;;;11.77;;
17725;SDS011;8983;53.156;17.960;2023-03-01T07:17:37;19.17;;;12.30;;
17725;SDS011;8983;53.156;17.960;2023-03-01T07:20:05;23.37;;;11.93;;
17725;SDS011;8983;53.156;17.960;2023-03-01T07:22:34;25.13;;;12.30;;
17725;SDS011;8983;53.156;17.960;2023-03-01T07:25:02;20.83;;;10.43;;
17725;SDS011;8983;53.156;17.960;2023-03-01T07:27:30;27.97;;;12.80;;
17725;SDS011;8983;53.156;17.960;2023-03-01T07:29:58;23.47;;;11.90;;
17725;SDS011;8983;53.156;17.960;2023-03-01T07:32:26;25.07;;;11.87;;
17725;SDS011;8983;53.156;17.960;2023-03-01T07:34:56;20.13;;;11.13;;
17725;SDS011;8983;53.156;17.960;2023-03-01T07:37:24;22.17;;;10.97;;
17725;SDS011;8983;53.156;17.960;2023-03-01T07:39:52;23.67;;;10.93;;
17725;SDS011;8983;53.156;17.960;2023-03-01T07:42:20;21.60;;;11.53;;
17725;SDS011;8983;53.156;17.960;2023-03-01T07:44:49;24.50;;;11.70;;
17725;SDS011;8983;53.156;17.960;2023-03-01T07:47:17;22.13;;;11.97;;
17725;SDS011;8983;53.156;17.960;2023-03-01T07:49:45;26.27;;;11.67;;
17725;SDS011;8983;53.156;17.960;2023-03-01T07:52:15;25.83;;;11.83;;
17725;SDS011;8983;53.156;17.960;2023-03-01T07:54:43;22.63;;;12.00;;
17725;SDS011;8983;53.156;17.960;2023-03-01T07:57:11;20.03;;;11.53;;
17725;SDS011;8983;53.156;17.960;2023-03-01T07:59:40;26.83;;;12.77;;
17725;SDS011;8983;53.156;17.960;2023-03-01T08:02:08;21.07;;;11.07;;
17725;SDS011;8983;53.156;17.960;2023-03-01T08:04:37;24.50;;;11.97;;
17725;SDS011;8983;53.156;17.960;2023-03-01T08:07:05;23.57;;;11.07;;
17725;SDS011;8983;53.156;17.960;2023-03-01T08:09:35;21.00;;;12.37;;
17725;SDS011;8983;53.156;17.960;2023-03-01T08:12:04;26.73;;;12.17;;
17725;SDS011;8983;53.156;17.960;2023-03-01T08:14:33;20.23;;;11.37;;
17725;SDS011;8983;53.156;17.960;2023-03-01T08:17:01;29.13;;;12.90;;
17725;SDS011;8983;53.156;17.960;2023-03-01T08:19:30;19.90;;;11.03;;
17725;SDS011;8983;53.156;17.960;2023-03-01T08:21:59;25.07;;;12.63;;
17725;SDS011;8983;53.156;17.960;2023-03-01T08:24:28;21.37;;;11.37;;
17725;SDS011;8983;53.156;17.960;2023-03-01T08:26:57;28.53;;;11.37;;
17725;SDS011;8983;53.156;17.960;2023-03-01T08:29:26;19.00;;;10.67;;
17725;SDS011;8983;53.156;17.960;2023-03-01T08:31:54;23.70;;;11.83;;
17725;SDS011;8983;53.156;17.960;2023-03-01T08:34:22;23.53;;;12.93;;
17725;SDS011;8983;53.156;17.960;2023-03-01T08:36:50;24.07;;;12.40;;
17725;SDS011;8983;53.156;17.960;2023-03-01T08:39:19;27.40;;;11.87;;
17725;SDS011;8983;53.156;17.960;2023-03-01T08:41:49;27.93;;;12.60;;
17725;SDS011;8983;53.156;17.960;2023-03-01T08:44:18;20.67;;;11.53;;
17725;SDS011;8983;53.156;17.960;2023-03-01T08:46:47;23.03;;;12.73;;
17725;SDS011;8983;53.156;17.960;2023-03-01T08:49:16;26.63;;;12.17;;
17725;SDS011;8983;53.156;17.960;2023-03-01T08:51:46;21.63;;;11.20;;
17725;SDS011;8983;53.156;17.960;2023-03-01T08:54:15;21.60;;;11.17;;
17725;SDS011;8983;53.156;17.960;2023-03-01T08:56:45;22.07;;;11.53;;
17725;SDS011;8983;53.156;17.960;2023-03-01T08:59:14;26.47;;;13.00;;
17725;SDS011;8983;53.156;17.960;2023-03-01T09:01:46;20.73;;;11.27;;
17725;SDS011;8983;53.156;17.960;2023-03-01T09:04:15;22.30;;;10.67;;
17725;SDS011;8983;53.156;17.960;2023-03-01T09:06:43;23.00;;;10.90;;
17725;SDS011;8983;53.156;17.960;2023-03-01T09:09:13;20.20;;;11.33;;
17725;SDS011;8983;53.156;17.960;2023-03-01T09:11:42;24.63;;;10.70;;
17725;SDS011;8983;53.156;17.960;2023-03-01T09:14:12;19.53;;;10.20;;
17725;SDS011;8983;53.156;17.960;2023-03-01T09:16:41;22.37;;;10.00;;
17725;SDS011;8983;53.156;17.960;2023-03-01T09:19:11;22.57;;;9.90;;
17725;SDS011;8983;53.156;17.960;2023-03-01T09:21:39;20.07;;;10.20;;
17725;SDS011;8983;53.156;17.960;2023-03-01T09:24:12;18.13;;;9.77;;
17725;SDS011;8983;53.156;17.960;2023-03-01T09:26:42;19.53;;;9.83;;
17725;SDS011;8983;53.156;17.960;2023-03-01T09:29:14;22.73;;;9.87;;
17725;SDS011;8983;53.156;17.960;2023-03-01T09:31:42;17.50;;;9.27;;
17725;SDS011;8983;53.156;17.960;2023-03-01T09:34:12;20.13;;;10.03;;
17725;SDS011;8983;53.156;17.960;2023-03-01T09:36:42;18.17;;;9.80;;
17725;SDS011;8983;53.156;17.960;2023-03-01T09:39:10;15.87;;;9.77;;
17725;SDS011;8983;53.156;17.960;2023-03-01T09:41:43;16.53;;;9.73;;
17725;SDS011;8983;53.156;17.960;2023-03-01T09:47:00;18.87;;;9.40;;
17725;SDS011;8983;53.156;17.960;2023-03-01T09:49:31;20.20;;;9.70;;
17725;SDS011;8983;53.156;17.960;2023-03-01T09:52:03;20.80;;;10.10;;
17725;SDS011;8983;53.156;17.960;2023-03-01T09:54:39;15.03;;;8.57;;
17725;SDS011;8983;53.156;17.960;2023-03-01T09:57:16;15.53;;;8.80;;
17725;SDS011;8983;53.156;17.960;2023-03-01T10:02:58;18.27;;;9.13;;
17725;SDS011;8983;53.156;17.960;2023-03-01T10:05:33;17.23;;;9.80;;
17725;SDS011;8983;53.156;17.960;2023-03-01T10:08:26;15.73;;;9.20;;
17725;SDS011;8983;53.156;17.960;2023-03-01T10:10:59;16.97;;;9.40;;
17725;SDS011;8983;53.156;17.960;2023-03-01T10:13:29;17.47;;;9.23;;
17725;SDS011;8983;53.156;17.960;2023-03-01T10:16:09;13.50;;;9.03;;
17725;SDS011;8983;53.156;17.960;2023-03-01T10:18:40;14.37;;;9.00;;
17725;SDS011;8983;53.156;17.960;2023-03-01T10:21:14;15.13;;;9.27;;
17725;SDS011;8983;53.156;17.960;2023-03-01T10:23:44;15.10;;;8.87;;
17725;SDS011;8983;53.156;17.960;2023-03-01T10:26:17;16.40;;;9.33;;
17725;SDS011;8983;53.156;17.960;2023-03-01T10:29:03;18.63;;;8.83;;
17725;SDS011;8983;53.156;17.960;2023-03-01T10:31:38;14.23;;;8.97;;
17725;SDS011;8983;53.156;17.960;2023-03-01T10:34:13;15.43;;;8.83;;
17725;SDS011;8983;53.156;17.960;2023-03-01T10:36:44;15.90;;;8.93;;
17725;SDS011;8983;53.156;17.960;2023-03-01T10:39:16;15.80;;;9.53;;
17725;SDS011;8983;53.156;17.960;2023-03-01T10:41:53;15.07;;;9.43;;
17725;SDS011;8983;53.156;17.960;2023-03-01T10:44:37;13.30;;;7.83;;
17725;SDS011;8983;53.156;17.960;2023-03-01T10:47:20;14.23;;;9.00;;
17725;SDS011;8983;53.156;17.960;2023-03-01T10:49:52;18.43;;;9.37;;
17725;SDS011;8983;53.156;17.960;2023-03-01T10:52:26;16.70;;;9.20;;
17725;SDS011;8983;53.156;17.960;2023-03-01T10:54:58;19.33;;;10.80;;
17725;SDS011;8983;53.156;17.960;2023-03-01T10:57:29;19.03;;;9.63;;
17725;SDS011;8983;53.156;17.960;2023-03-01T11:00:14;19.33;;;9.77;;
17725;SDS011;8983;53.156;17.960;2023-03-01T11:03:02;21.80;;;9.87;;
17725;SDS011;8983;53.156;17.960;2023-03-01T11:05:37;16.50;;;8.97;;
17725;SDS011;8983;53.156;17.960;2023-03-01T11:08:30;16.07;;;9.60;;
17725;SDS011;8983;53.156;17.960;2023-03-01T11:11:19;16.37;;;8.80;;
17725;SDS011;8983;53.156;17.960;2023-03-01T11:13:58;16.70;;;9.07;;
17725;SDS011;8983;53.156;17.960;2023-03-01T11:16:34;16.03;;;9.17;;
17725;SDS011;8983;53.156;17.960;2023-03-01T11:19:13;17.13;;;7.90;;
17725;SDS011;8983;53.156;17.960;2023-03-01T11:21:59;17.10;;;8.93;;
17725;SDS011;8983;53.156;17.960;2023-03-01T11:24:33;13.67;;;8.80;;
17725;SDS011;8983;53.156;17.960;2023-03-01T11:27:13;17.70;;;9.10;;
17725;SDS011;8983;53.156;17.960;2023-03-01T11:29:45;11.50;;;7.20;;
17725;SDS011;8983;53.156;17.960;2023-03-01T11:32:17;13.67;;;7.83;;
17725;SDS011;8983;53.156;17.960;2023-03-01T11:34:50;14.43;;;7.93;;
17725;SDS011;8983;53.156;17.960;2023-03-01T11:37:23;14.67;;;8.07;;
17725;SDS011;8983;53.156;17.960;2023-03-01T11:40:03;17.97;;;9.10;;
17725;SDS011;8983;53.156;17.960;2023-03-01T11:42:46;14.10;;;7.67;;
17725;SDS011;8983;53.156;17.960;2023-03-01T11:45:23;12.47;;;7.93;;
17725;SDS011;8983;53.156;17.960;2023-03-01T11:48:04;14.10;;;8.03;;
17725;SDS011;8983;53.156;17.960;2023-03-01T11:50:42;12.90;;;7.30;;
17725;SDS011;8983;53.156;17.960;2023-03-01T11:53:19;15.23;;;7.83;;
17725;SDS011;8983;53.156;17.960;2023-03-01T11:56:03;13.63;;;7.60;;
17725;SDS011;8983;53.156;17.960;2023-03-01T11:58:55;13.23;;;7.90;;
17725;SDS011;8983;53.156;17.960;2023-03-01T12:01:49;12.40;;;6.83;;
17725;SDS011;8983;53.156;17.960;2023-03-01T12:04:48;10.37;;;6.63;;
17725;SDS011;8983;53.156;17.960;2023-03-01T12:07:27;16.67;;;8.33;;
17725;SDS011;8983;53.156;17.960;2023-03-01T12:10:14;11.97;;;7.57;;
17725;SDS011;8983;53.156;17.960;2023-03-01T12:15:50;12.40;;;7.73;;
17725;SDS011;8983;53.156;17.960;2023-03-01T12:18:35;14.87;;;7.90;;
17725;SDS011;8983;53.156;17.960;2023-03-01T12:21:25;12.63;;;7.63;;
17725;SDS011;8983;53.156;17.960;2023-03-01T12:24:10;15.37;;;7.90;;
17725;SDS011;8983;53.156;17.960;2023-03-01T12:27:22;15.77;;;8.83;;
17725;SDS011;8983;53.156;17.960;2023-03-01T12:30:03;23.27;;;10.27;;
17725;SDS011;8983;53.156;17.960;2023-03-01T12:32:47;14.03;;;8.10;;
17725;SDS011;8983;53.156;17.960;2023-03-01T12:35:35;12.73;;;7.53;;
17725;SDS011;8983;53.156;17.960;2023-03-01T12:38:16;15.93;;;8.67;;
17725;SDS011;8983;53.156;17.960;2023-03-01T12:41:04;15.20;;;8.57;;
17725;SDS011;8983;53.156;17.960;2023-03-01T12:43:47;16.47;;;8.53;;
17725;SDS011;8983;53.156;17.960;2023-03-01T12:46:31;12.43;;;7.60;;
17725;SDS011;8983;53.156;17.960;2023-03-01T12:49:12;19.17;;;8.70;;
17725;SDS011;8983;53.156;17.960;2023-03-01T12:51:44;15.13;;;8.63;;
17725;SDS011;8983;53.156;17.960;2023-03-01T12:54:19;21.80;;;9.17;;
17725;SDS011;8983;53.156;17.960;2023-03-01T12:56:53;18.23;;;8.50;;
17725;SDS011;8983;53.156;17.960;2023-03-01T12:59:23;23.73;;;10.23;;
17725;SDS011;8983;53.156;17.960;2023-03-01T13:01:59;18.30;;;8.23;;
17725;SDS011;8983;53.156;17.960;2023-03-01T13:04:38;21.13;;;9.00;;
17725;SDS011;8983;53.156;17.960;2023-03-01T13:07:21;15.23;;;7.93;;
17725;SDS011;8983;53.156;17.960;2023-03-01T13:09:56;14.70;;;8.60;;
17725;SDS011;8983;53.156;17.960;2023-03-01T13:12:42;12.37;;;7.27;;
17725;SDS011;8983;53.156;17.960;2023-03-01T13:15:24;13.50;;;7.33;;
17725;SDS011;8983;53.156;17.960;2023-03-01T13:17:55;23.80;;;9.50;;
17725;SDS011;8983;53.156;17.960;2023-03-01T13:20:26;29.30;;;10.50;;
17725;SDS011;8983;53.156;17.960;2023-03-01T13:23:01;16.60;;;8.53;;
17725;SDS011;8983;53.156;17.960;2023-03-01T13:28:35;12.20;;;6.80;;
17725;SDS011;8983;53.156;17.960;2023-03-01T13:31:08;17.30;;;8.97;;
17725;SDS011;8983;53.156;17.960;2023-03-01T13:33:43;12.33;;;7.83;;
17725;SDS011;8983;53.156;17.960;2023-03-01T13:39:27;15.73;;;8.27;;
17725;SDS011;8983;53.156;17.960;2023-03-01T13:41:58;13.93;;;7.57;;
17725;SDS011;8983;53.156;17.960;2023-03-01T13:44:29;13.30;;;8.23;;
17725;SDS011;8983;53.156;17.960;2023-03-01T13:47:02;21.87;;;9.83;;
17725;SDS011;8983;53.156;17.960;2023-03-01T13:49:43;13.70;;;8.03;;
17725;SDS011;8983;53.156;17.960;2023-03-01T13:52:32;14.90;;;7.47;;
17725;SDS011;8983;53.156;17.960;2023-03-01T13:55:10;13.60;;;8.13;;
17725;SDS011;8983;53.156;17.960;2023-03-01T13:57:45;13.70;;;7.93;;
17725;SDS011;8983;53.156;17.960;2023-03-01T14:00:27;13.93;;;7.87;;
17725;SDS011;8983;53.156;17.960;2023-03-01T14:03:01;11.83;;;7.53;;
17725;SDS011;8983;53.156;17.960;2023-03-01T14:05:33;13.40;;;7.67;;
17725;SDS011;8983;53.156;17.960;2023-03-01T14:08:02;14.83;;;8.60;;
17725;SDS011;8983;53.156;17.960;2023-03-01T14:10:32;14.77;;;7.57;;
17725;SDS011;8983;53.156;17.960;2023-03-01T14:13:12;13.43;;;7.57;;
17725;SDS011;8983;53.156;17.960;2023-03-01T14:16:01;12.00;;;7.63;;
17725;SDS011;8983;53.156;17.960;2023-03-01T14:18:40;13.13;;;7.57;;
17725;SDS011;8983;53.156;17.960;2023-03-01T14:21:16;13.57;;;7.67;;
17725;SDS011;8983;53.156;17.960;2023-03-01T14:23:44;17.47;;;10.63;;
17725;SDS011;8983;53.156;17.960;2023-03-01T14:26:13;14.97;;;9.20;;
17725;SDS011;8983;53.156;17.960;2023-03-01T14:28:49;14.37;;;8.57;;
17725;SDS011;8983;53.156;17.960;2023-03-01T14:34:19;15.20;;;8.57;;
17725;SDS011;8983;53.156;17.960;2023-03-01T14:36:50;12.17;;;7.90;;
17725;SDS011;8983;53.156;17.960;2023-03-01T14:39:19;13.60;;;8.57;;
17725;SDS011;8983;53.156;17.960;2023-03-01T14:41:52;14.67;;;8.20;;
17725;SDS011;8983;53.156;17.960;2023-03-01T14:44:23;11.80;;;7.33;;
17725;SDS011;8983;53.156;17.960;2023-03-01T14:46:52;15.63;;;8.43;;
17725;SDS011;8983;53.156;17.960;2023-03-01T14:49:24;13.07;;;7.47;;
17725;SDS011;8983;53.156;17.960;2023-03-01T14:51:58;13.27;;;7.83;;
17725;SDS011;8983;53.156;17.960;2023-03-01T14:54:35;12.10;;;7.77;;
17725;SDS011;8983;53.156;17.960;2023-03-01T14:57:12;13.97;;;8.73;;
17725;SDS011;8983;53.156;17.960;2023-03-01T14:59:43;15.87;;;8.40;;
17725;SDS011;8983;53.156;17.960;2023-03-01T15:02:12;13.13;;;7.60;;
17725;SDS011;8983;53.156;17.960;2023-03-01T15:04:45;12.43;;;7.37;;
17725;SDS011;8983;53.156;17.960;2023-03-01T15:07:17;13.10;;;7.40;;
17725;SDS011;8983;53.156;17.960;2023-03-01T15:09:45;11.60;;;7.30;;
17725;SDS011;8983;53.156;17.960;2023-03-01T15:18:05;8.93;;;6.57;;
17725;SDS011;8983;53.156;17.960;2023-03-01T15:20:42;12.03;;;6.40;;
17725;SDS011;8983;53.156;17.960;2023-03-01T15:23:19;10.57;;;6.37;;